Time;durP1;ratioP1;P1;durP2;ratioP2;P2;SDS_P1;SDS_P2;PMS_P1;PMS_P2;Temp;Humidity;BMP_temperature;BMP_pressure;BME280_temperature;BME280_humidity;BME280_pressure;Samples;Min_cycle;Max_cycle;Signal;HPM_P1;HPM_P2
2023/05/30 00:00:01;;;;;;;10.40;4.40;;;;;;;;;;5002245;28;20426;-78
2023/05/30 00:02:27;;;;;;;10.82;3.95;;;;;;;;;;5011676;28;20052;-78
2023/05/30 00:04:55;;;;;;;11.05;4.78;;;;;;;;;;5009446;28;20035;-78
2023/05/30 00:07:22;;;;;;;7.82;3.90;;;;;;;;;;5011019;28;20068;-78
2023/05/30 00:09:48;;;;;;;11.77;4.18;;;;;;;;;;5014073;28;20050;-78
2023/05/30 00:12:16;;;;;;;11.50;4.22;;;;;;;;;;5028620;28;20061;-78
2023/05/30 00:14:42;;;;;;;11.48;4.88;;;;;;;;;;5001509;28;20053;-78
2023/05/30 00:17:08;;;;;;;7.63;3.95;;;;;;;;;;5003962;28;20588;-78
2023/05/30 00:19:34;;;;;;;9.75;4.25;;;;;;;;;;4994409;28;20541;-78
2023/05/30 00:22:01;;;;;;;8.70;3.83;;;;;;;;;;5010068;28;20089;-78
2023/05/30 00:24:28;;;;;;;8.73;4.32;;;;;;;;;;5015101;28;20041;-78
2023/05/30 00:26:54;;;;;;;8.60;3.90;;;;;;;;;;5013497;28;20056;-78
2023/05/30 00:29:20;;;;;;;8.77;3.85;;;;;;;;;;4995884;28;20082;-78
2023/05/30 00:31:46;;;;;;;9.73;4.28;;;;;;;;;;4995173;28;20046;-78
2023/05/30 00:34:12;;;;;;;11.68;4.05;;;;;;;;;;5012759;28;20544;-77
2023/05/30 00:36:38;;;;;;;13.10;4.40;;;;;;;;;;4997627;28;20061;-77
2023/05/30 00:39:04;;;;;;;9.35;3.90;;;;;;;;;;5008897;28;20081;-78
2023/05/30 00:41:30;;;;;;;7.40;4.25;;;;;;;;;;5014834;28;20136;-78
2023/05/30 00:43:56;;;;;;;7.57;3.88;;;;;;;;;;5009945;28;20509;-78
2023/05/30 00:46:25;;;;;;;10.55;4.10;;;;;;;;;;5008144;28;20061;-78
2023/05/30 00:48:52;;;;;;;8.15;3.65;;;;;;;;;;5012722;28;20520;-79
2023/05/30 00:51:19;;;;;;;10.48;4.28;;;;;;;;;;5011586;28;20045;-78
2023/05/30 00:53:45;;;;;;;8.60;3.72;;;;;;;;;;5006116;28;20042;-78
2023/05/30 00:56:12;;;;;;;10.10;3.92;;;;;;;;;;5008380;28;20486;-78
2023/05/30 00:58:39;;;;;;;10.55;3.88;;;;;;;;;;5009652;28;20046;-78
2023/05/30 01:01:05;;;;;;;7.97;3.80;;;;;;;;;;5011598;28;20049;-78
2023/05/30 01:03:32;;;;;;;8.10;3.50;;;;;;;;;;4996073;28;20080;-78
2023/05/30 01:05:59;;;;;;;8.70;4.28;;;;;;;;;;4991960;28;20529;-78
2023/05/30 01:08:25;;;;;;;8.18;3.53;;;;;;;;;;5010530;28;20054;-78
2023/05/30 01:10:56;;;;;;;10.80;3.90;;;;;;;;;;5002809;28;20057;-78
2023/05/30 01:13:26;;;;;;;6.35;3.80;;;;;;;;;;5003427;28;20054;-79
2023/05/30 01:16:00;;;;;;;8.57;4.10;;;;;;;;;;5003310;28;20127;-78
2023/05/30 01:18:34;;;;;;;10.57;4.00;;;;;;;;;;5002434;28;20121;-78
2023/05/30 01:21:03;;;;;;;10.23;4.15;;;;;;;;;;5006939;28;20105;-78
2023/05/30 01:23:30;;;;;;;10.32;4.15;;;;;;;;;;5008078;28;20083;-78
2023/05/30 01:26:05;;;;;;;10.07;3.85;;;;;;;;;;5012546;28;20536;-78
2023/05/30 01:28:36;;;;;;;9.43;4.00;;;;;;;;;;5023853;28;20486;-77
2023/05/30 01:31:03;;;;;;;8.80;4.10;;;;;;;;;;5013559;28;20061;-77
2023/05/30 01:33:29;;;;;;;9.15;4.05;;;;;;;;;;4999993;28;20057;-78
2023/05/30 01:35:55;;;;;;;11.52;4.63;;;;;;;;;;4993322;28;20058;-78
2023/05/30 01:38:22;;;;;;;12.90;4.18;;;;;;;;;;4993389;28;20046;-78
2023/05/30 01:40:50;;;;;;;8.35;4.32;;;;;;;;;;4993909;28;20066;-79
2023/05/30 01:43:23;;;;;;;9.70;4.03;;;;;;;;;;4993663;28;20053;-78
2023/05/30 01:45:49;;;;;;;;;;;;;;;;;;4974960;28;1075559;-78
2023/05/30 01:48:18;;;;;;;10.88;4.35;;;;;;;;;;5025999;28;19925;-78
2023/05/30 01:50:47;;;;;;;8.57;3.90;;;;;;;;;;5014694;28;20038;-78
2023/05/30 01:53:17;;;;;;;13.40;4.43;;;;;;;;;;5010473;28;20057;-78
2023/05/30 01:55:44;;;;;;;6.95;3.85;;;;;;;;;;5012665;28;20161;-78
2023/05/30 01:58:11;;;;;;;7.85;4.20;;;;;;;;;;5009820;28;20505;-78
2023/05/30 02:00:37;;;;;;;9.23;4.00;;;;;;;;;;5012851;28;20064;-78
2023/05/30 02:03:03;;;;;;;7.82;3.88;;;;;;;;;;5006616;28;20108;-77
2023/05/30 02:05:29;;;;;;;7.85;3.47;;;;;;;;;;5013568;28;20054;-78
2023/05/30 02:07:56;;;;;;;8.82;4.38;;;;;;;;;;5026555;28;20393;-78
2023/05/30 02:10:22;;;;;;;11.10;4.38;;;;;;;;;;5008318;28;20054;-79
2023/05/30 02:12:48;;;;;;;9.98;4.40;;;;;;;;;;5010774;28;20048;-78
2023/05/30 02:15:14;;;;;;;11.30;3.97;;;;;;;;;;5007330;28;20494;-78
2023/05/30 02:17:40;;;;;;;7.53;3.75;;;;;;;;;;5009048;28;20080;-77
2023/05/30 02:20:09;;;;;;;10.15;4.18;;;;;;;;;;5009407;28;20144;-77
2023/05/30 02:22:35;;;;;;;8.48;4.25;;;;;;;;;;5008268;28;20042;-78
2023/05/30 02:25:02;;;;;;;11.77;4.25;;;;;;;;;;5010471;28;20037;-78
2023/05/30 02:27:28;;;;;;;12.77;4.13;;;;;;;;;;5011152;28;20053;-78
2023/05/30 02:29:54;;;;;;;9.70;4.30;;;;;;;;;;5009269;28;20042;-78
2023/05/30 02:32:20;;;;;;;12.35;4.38;;;;;;;;;;5007940;28;20049;-78
2023/05/30 02:34:46;;;;;;;9.38;3.92;;;;;;;;;;5016502;28;20081;-78
2023/05/30 02:37:12;;;;;;;12.15;4.60;;;;;;;;;;5007740;28;20072;-78
2023/05/30 02:39:38;;;;;;;10.07;3.70;;;;;;;;;;5009807;28;20402;-77
2023/05/30 02:42:05;;;;;;;8.23;4.45;;;;;;;;;;4995064;28;20053;-78
2023/05/30 02:44:32;;;;;;;11.95;4.60;;;;;;;;;;5001337;28;20128;-77
2023/05/30 02:46:58;;;;;;;8.77;4.28;;;;;;;;;;5007671;28;20145;-78
2023/05/30 02:49:24;;;;;;;11.93;4.03;;;;;;;;;;5006215;28;20125;-78
2023/05/30 02:51:50;;;;;;;9.13;4.55;;;;;;;;;;5009037;28;20042;-77
2023/05/30 02:54:16;;;;;;;12.00;4.20;;;;;;;;;;5010611;28;20103;-78
2023/05/30 02:56:42;;;;;;;12.98;4.50;;;;;;;;;;5011985;28;20054;-78
2023/05/30 02:59:08;;;;;;;6.88;3.72;;;;;;;;;;5007871;28;20042;-78
2023/05/30 03:01:34;;;;;;;9.88;4.13;;;;;;;;;;5011230;28;20153;-78
2023/05/30 03:04:00;;;;;;;9.75;4.28;;;;;;;;;;5008981;28;20505;-78
2023/05/30 03:06:27;;;;;;;9.82;4.78;;;;;;;;;;5004020;28;20121;-78
2023/05/30 03:08:57;;;;;;;9.50;4.45;;;;;;;;;;5025526;28;20497;-78
2023/05/30 03:11:23;;;;;;;10.80;4.63;;;;;;;;;;5004011;28;20042;-78
2023/05/30 03:13:50;;;;;;;13.85;4.15;;;;;;;;;;5007352;28;20104;-78
2023/05/30 03:16:16;;;;;;;8.93;4.22;;;;;;;;;;5024109;28;20121;-78
2023/05/30 03:18:42;;;;;;;10.35;4.00;;;;;;;;;;5003688;28;20049;-78
2023/05/30 03:21:10;;;;;;;11.18;4.18;;;;;;;;;;5002885;28;20152;-78
2023/05/30 03:23:36;;;;;;;11.35;4.60;;;;;;;;;;5001103;28;20045;-78
2023/05/30 03:26:03;;;;;;;8.90;4.53;;;;;;;;;;5001053;28;20072;-78
2023/05/30 03:28:29;;;;;;;12.45;4.43;;;;;;;;;;5001015;28;20041;-78
2023/05/30 03:30:56;;;;;;;10.60;4.43;;;;;;;;;;5002649;28;20051;-79
2023/05/30 03:33:22;;;;;;;10.23;3.80;;;;;;;;;;5004812;28;21193;-78
2023/05/30 03:35:49;;;;;;;9.02;4.10;;;;;;;;;;5005940;28;20117;-78
2023/05/30 03:38:15;;;;;;;14.25;4.22;;;;;;;;;;5000540;28;20107;-78
2023/05/30 03:40:41;;;;;;;9.40;4.10;;;;;;;;;;4998474;28;20409;-78
2023/05/30 03:43:07;;;;;;;11.88;3.90;;;;;;;;;;5002482;28;20512;-78
2023/05/30 03:45:33;;;;;;;9.68;4.20;;;;;;;;;;5002599;28;20066;-78
2023/05/30 03:47:59;;;;;;;14.10;4.25;;;;;;;;;;5004171;28;20478;-78
2023/05/30 03:50:25;;;;;;;12.55;4.15;;;;;;;;;;5003588;28;20075;-78
2023/05/30 03:52:51;;;;;;;9.52;4.32;;;;;;;;;;5003129;28;20137;-78
2023/05/30 03:55:17;;;;;;;11.25;4.13;;;;;;;;;;5000054;28;20038;-78
2023/05/30 03:57:43;;;;;;;11.68;4.07;;;;;;;;;;4999994;28;20034;-78
2023/05/30 04:00:10;;;;;;;9.52;4.05;;;;;;;;;;5002869;28;20050;-78
2023/05/30 04:02:36;;;;;;;8.77;3.47;;;;;;;;;;5000936;28;20052;-78
2023/05/30 04:05:02;;;;;;;17.85;4.88;;;;;;;;;;5004428;28;20125;-78
2023/05/30 04:07:28;;;;;;;9.75;3.78;;;;;;;;;;4999814;28;20041;-78
2023/05/30 04:09:57;;;;;;;10.13;3.97;;;;;;;;;;4999802;28;20065;-78
2023/05/30 04:12:23;;;;;;;10.05;3.85;;;;;;;;;;5000870;28;20046;-78
2023/05/30 04:14:49;;;;;;;10.07;4.43;;;;;;;;;;5001333;28;21315;-78
2023/05/30 04:17:15;;;;;;;9.25;3.80;;;;;;;;;;5002083;28;20041;-78
2023/05/30 04:19:41;;;;;;;8.52;3.92;;;;;;;;;;5005453;28;20037;-78
2023/05/30 04:22:08;;;;;;;9.18;4.28;;;;;;;;;;5001384;28;20053;-77
2023/05/30 04:24:34;;;;;;;11.13;3.67;;;;;;;;;;5000793;28;20156;-77
2023/05/30 04:27:00;;;;;;;11.75;4.20;;;;;;;;;;5001184;28;20053;-78
2023/05/30 04:29:26;;;;;;;8.60;3.72;;;;;;;;;;5001725;28;20397;-78
2023/05/30 04:31:52;;;;;;;8.00;3.42;;;;;;;;;;5000486;28;20104;-78
2023/05/30 04:34:18;;;;;;;9.35;4.18;;;;;;;;;;5001597;28;20064;-79
2023/05/30 04:36:44;;;;;;;9.90;3.70;;;;;;;;;;4998756;28;20082;-78
2023/05/30 04:39:11;;;;;;;10.68;4.10;;;;;;;;;;5003228;28;20041;-78
2023/05/30 04:41:37;;;;;;;11.07;3.88;;;;;;;;;;5005191;28;20042;-78
2023/05/30 04:44:03;;;;;;;9.38;3.83;;;;;;;;;;5003760;28;20096;-78
2023/05/30 04:46:30;;;;;;;9.77;3.63;;;;;;;;;;5002591;28;20120;-78
2023/05/30 04:49:00;;;;;;;18.00;5.38;;;;;;;;;;5004591;28;20052;-79
2023/05/30 04:51:26;;;;;;;9.55;3.83;;;;;;;;;;4997542;28;20054;-79
2023/05/30 04:53:53;;;;;;;8.63;3.70;;;;;;;;;;5003779;28;20054;-79
2023/05/30 04:56:22;;;;;;;10.73;4.28;;;;;;;;;;5005288;28;20175;-78
2023/05/30 04:58:51;;;;;;;10.07;4.03;;;;;;;;;;5002150;28;20394;-78
2023/05/30 05:01:18;;;;;;;8.73;4.30;;;;;;;;;;5006749;28;20046;-79
2023/05/30 05:03:44;;;;;;;12.35;4.43;;;;;;;;;;5004048;28;20048;-78
2023/05/30 05:06:11;;;;;;;10.50;4.00;;;;;;;;;;5012821;28;20089;-78
2023/05/30 05:08:38;;;;;;;8.93;3.83;;;;;;;;;;5009845;28;20409;-78
2023/05/30 05:11:04;;;;;;;6.00;3.45;;;;;;;;;;5004447;28;20057;-78
2023/05/30 05:13:31;;;;;;;8.27;3.55;;;;;;;;;;5014154;28;20073;-78
2023/05/30 05:15:57;;;;;;;5.30;3.50;;;;;;;;;;5009372;28;20049;-78
2023/05/30 05:18:23;;;;;;;6.68;3.53;;;;;;;;;;5009588;28;20045;-78
2023/05/30 05:20:50;;;;;;;7.32;3.42;;;;;;;;;;5005144;28;20069;-78
2023/05/30 05:23:16;;;;;;;7.22;3.08;;;;;;;;;;5006726;28;20093;-78
2023/05/30 05:25:42;;;;;;;8.85;3.88;;;;;;;;;;5007922;28;20061;-78
2023/05/30 05:28:08;;;;;;;9.73;3.20;;;;;;;;;;5009576;28;20144;-75
2023/05/30 05:30:34;;;;;;;5.95;3.20;;;;;;;;;;5007026;28;20125;-77
2023/05/30 05:33:00;;;;;;;5.75;3.10;;;;;;;;;;5007906;28;20057;-77
2023/05/30 05:35:26;;;;;;;10.00;3.42;;;;;;;;;;5016447;28;20120;-78
2023/05/30 05:37:53;;;;;;;7.65;3.50;;;;;;;;;;5013953;28;20133;-77
2023/05/30 05:40:19;;;;;;;6.82;3.47;;;;;;;;;;5008100;28;20816;-78
2023/05/30 05:42:45;;;;;;;6.63;3.42;;;;;;;;;;5012983;28;20453;-77
2023/05/30 05:45:12;;;;;;;10.85;3.83;;;;;;;;;;5005462;28;20510;-77
2023/05/30 05:47:38;;;;;;;6.85;3.88;;;;;;;;;;5004309;28;20084;-78
2023/05/30 05:50:04;;;;;;;7.07;3.25;;;;;;;;;;5006479;28;20463;-77
2023/05/30 05:52:30;;;;;;;6.75;3.42;;;;;;;;;;5013129;28;20046;-77
2023/05/30 05:54:56;;;;;;;10.80;3.80;;;;;;;;;;5009361;28;20073;-78
2023/05/30 05:57:22;;;;;;;8.05;3.33;;;;;;;;;;5009269;28;20085;-78
2023/05/30 05:59:48;;;;;;;8.90;3.63;;;;;;;;;;5012945;28;20045;-78
2023/05/30 06:02:15;;;;;;;8.02;3.60;;;;;;;;;;5001877;28;20104;-78
2023/05/30 06:04:41;;;;;;;6.30;3.75;;;;;;;;;;5001927;28;20374;-77
2023/05/30 06:07:07;;;;;;;9.13;4.07;;;;;;;;;;5021872;28;20460;-77
2023/05/30 06:09:34;;;;;;;12.68;3.25;;;;;;;;;;5009665;28;20046;-76
2023/05/30 06:12:01;;;;;;;7.85;3.60;;;;;;;;;;5003349;28;20835;-78
2023/05/30 06:14:27;;;;;;;7.63;3.97;;;;;;;;;;5027314;28;20053;-78
2023/05/30 06:16:54;;;;;;;7.93;3.50;;;;;;;;;;5008107;28;20402;-78
2023/05/30 06:19:20;;;;;;;8.68;3.35;;;;;;;;;;5001625;28;20050;-77
2023/05/30 06:21:46;;;;;;;6.50;2.90;;;;;;;;;;5011772;28;20053;-77
2023/05/30 06:24:12;;;;;;;5.78;2.63;;;;;;;;;;5008794;28;20402;-77
2023/05/30 06:26:38;;;;;;;6.60;3.05;;;;;;;;;;5003880;28;20046;-78
2023/05/30 06:29:04;;;;;;;4.63;2.95;;;;;;;;;;5008574;28;20046;-77
2023/05/30 06:31:30;;;;;;;5.05;3.05;;;;;;;;;;5006828;28;20103;-77
2023/05/30 06:33:56;;;;;;;6.47;3.00;;;;;;;;;;5009919;28;20506;-77
2023/05/30 06:36:22;;;;;;;4.38;2.70;;;;;;;;;;5002995;28;20042;-77
2023/05/30 06:38:48;;;;;;;5.07;2.60;;;;;;;;;;5006793;28;20053;-77
2023/05/30 06:41:14;;;;;;;6.00;2.60;;;;;;;;;;5010129;28;20042;-77
2023/05/30 06:43:40;;;;;;;6.18;2.72;;;;;;;;;;5011362;28;20050;-77
2023/05/30 06:46:06;;;;;;;6.53;2.88;;;;;;;;;;5011238;28;20046;-77
2023/05/30 06:48:32;;;;;;;6.15;3.42;;;;;;;;;;4997361;28;20057;-77
2023/05/30 06:50:58;;;;;;;5.07;2.78;;;;;;;;;;4994119;28;20134;-77
2023/05/30 06:53:25;;;;;;;4.68;2.88;;;;;;;;;;5006940;28;20121;-77
2023/05/30 06:55:51;;;;;;;6.72;3.13;;;;;;;;;;5001376;28;20054;-76
2023/05/30 06:58:18;;;;;;;3.35;2.75;;;;;;;;;;5009468;28;20042;-77
2023/05/30 07:00:44;;;;;;;3.42;2.40;;;;;;;;;;5009695;28;20049;-76
2023/05/30 07:03:10;;;;;;;4.53;2.60;;;;;;;;;;5003422;28;20408;-77
2023/05/30 07:05:36;;;;;;;4.68;2.70;;;;;;;;;;5002084;28;20058;-77
2023/05/30 07:08:02;;;;;;;8.40;3.05;;;;;;;;;;5010490;28;20186;-76
2023/05/30 07:10:28;;;;;;;6.93;3.45;;;;;;;;;;5002582;28;20045;-78
2023/05/30 07:12:54;;;;;;;6.97;2.90;;;;;;;;;;5007288;28;20038;-78
2023/05/30 07:15:20;;;;;;;15.18;5.63;;;;;;;;;;5010013;28;20346;-78
2023/05/30 07:17:46;;;;;;;4.28;2.53;;;;;;;;;;4997466;28;20056;-77
2023/05/30 07:20:13;;;;;;;3.53;2.88;;;;;;;;;;5004117;28;20395;-77
2023/05/30 07:22:40;;;;;;;4.20;2.80;;;;;;;;;;4992578;28;20057;-77
2023/05/30 07:25:06;;;;;;;9.60;3.63;;;;;;;;;;5007777;28;20045;-77
2023/05/30 07:27:32;;;;;;;8.07;3.45;;;;;;;;;;4991415;28;20042;-77
2023/05/30 07:29:58;;;;;;;5.13;2.50;;;;;;;;;;4991554;28;20089;-77
2023/05/30 07:32:24;;;;;;;7.45;3.10;;;;;;;;;;4992103;28;20125;-77
2023/05/30 07:34:51;;;;;;;3.83;2.70;;;;;;;;;;5010134;28;20123;-77
2023/05/30 07:37:17;;;;;;;4.60;2.15;;;;;;;;;;5010956;28;20050;-77
2023/05/30 07:39:43;;;;;;;4.75;1.98;;;;;;;;;;5005521;28;20375;-77
2023/05/30 07:42:09;;;;;;;2.30;1.50;;;;;;;;;;5009155;28;20363;-78
2023/05/30 07:44:35;;;;;;;7.03;3.30;;;;;;;;;;5003346;28;20042;-77
2023/05/30 07:47:02;;;;;;;3.55;2.00;;;;;;;;;;5007615;28;20054;-78
2023/05/30 07:49:28;;;;;;;6.97;1.70;;;;;;;;;;5008354;28;20168;-78
2023/05/30 07:51:54;;;;;;;3.42;1.77;;;;;;;;;;5006247;28;20081;-78
2023/05/30 07:54:20;;;;;;;3.67;1.55;;;;;;;;;;5005625;28;20108;-77
2023/05/30 07:56:46;;;;;;;21.27;3.30;;;;;;;;;;5012040;28;20082;-78
2023/05/30 07:59:12;;;;;;;2.38;1.50;;;;;;;;;;4996053;28;20074;-77
2023/05/30 08:01:39;;;;;;;2.25;1.40;;;;;;;;;;4991200;28;20050;-77
2023/05/30 08:04:05;;;;;;;1.20;1.20;;;;;;;;;;4997718;28;20047;-77
2023/05/30 08:06:31;;;;;;;1.95;1.30;;;;;;;;;;4998947;28;20486;-77
2023/05/30 08:08:57;;;;;;;1.85;1.17;;;;;;;;;;4999208;28;20042;-77
2023/05/30 08:11:23;;;;;;;2.30;1.10;;;;;;;;;;4991795;28;20045;-78
2023/05/30 08:13:49;;;;;;;1.95;1.05;;;;;;;;;;5004095;28;20092;-77
2023/05/30 08:16:15;;;;;;;1.45;1.30;;;;;;;;;;5012146;28;20054;-77
2023/05/30 08:18:42;;;;;;;2.03;1.55;;;;;;;;;;5008051;28;20050;-78
2023/05/30 08:21:11;;;;;;;1.40;1.27;;;;;;;;;;4998868;28;20053;-77
2023/05/30 08:23:38;;;;;;;1.98;1.30;;;;;;;;;;5005440;28;20137;-77
2023/05/30 08:26:06;;;;;;;1.15;1.13;;;;;;;;;;5015545;28;20494;-77
2023/05/30 08:28:33;;;;;;;2.45;1.20;;;;;;;;;;5012786;28;20045;-78
2023/05/30 08:30:59;;;;;;;1.60;1.50;;;;;;;;;;5012989;28;20104;-77
2023/05/30 08:33:25;;;;;;;3.03;1.70;;;;;;;;;;4998555;28;20495;-77
2023/05/30 08:35:51;;;;;;;3.13;1.77;;;;;;;;;;4994640;28;20445;-77
2023/05/30 08:38:17;;;;;;;2.90;1.80;;;;;;;;;;5007168;28;20571;-78
2023/05/30 08:40:45;;;;;;;3.00;1.52;;;;;;;;;;4996110;28;20054;-77
2023/05/30 08:43:11;;;;;;;2.25;1.60;;;;;;;;;;5006032;28;20156;-77
2023/05/30 08:45:40;;;;;;;3.60;1.83;;;;;;;;;;5014241;28;20062;-77
2023/05/30 08:48:06;;;;;;;1.67;1.58;;;;;;;;;;4999880;28;20486;-78
2023/05/30 08:50:36;;;;;;;4.03;1.80;;;;;;;;;;4994216;28;20050;-76
2023/05/30 08:53:09;;;;;;;1.83;1.60;;;;;;;;;;5007337;28;20473;-77
2023/05/30 08:55:38;;;;;;;3.33;1.75;;;;;;;;;;5011767;28;20041;-77
2023/05/30 08:58:25;;;;;;;2.35;1.85;;;;;;;;;;4994449;28;20121;-77
2023/05/30 09:00:52;;;;;;;4.25;1.90;;;;;;;;;;4992138;28;20058;-77
2023/05/30 09:03:22;;;;;;;2.63;1.90;;;;;;;;;;4993893;28;20058;-78
2023/05/30 09:05:49;;;;;;;3.17;1.70;;;;;;;;;;5001973;28;20449;-77
2023/05/30 09:08:17;;;;;;;2.58;1.90;;;;;;;;;;5016738;28;20050;-77
2023/05/30 09:10:48;;;;;;;2.83;1.80;;;;;;;;;;4995681;28;20034;-77
2023/05/30 09:13:16;;;;;;;2.83;1.70;;;;;;;;;;5009058;28;20450;-77
2023/05/30 09:15:43;;;;;;;3.13;1.58;;;;;;;;;;4996360;28;20088;-78
2023/05/30 09:18:09;;;;;;;2.83;2.05;;;;;;;;;;4996289;28;20045;-77
2023/05/30 09:20:37;;;;;;;2.60;1.80;;;;;;;;;;5000463;28;20046;-77
2023/05/30 09:23:04;;;;;;;3.63;2.03;;;;;;;;;;5012162;28;20042;-76
2023/05/30 09:25:42;;;;;;;4.18;1.75;;;;;;;;;;4998594;28;20089;-77
2023/05/30 09:28:08;;;;;;;2.42;1.70;;;;;;;;;;5000705;28;20042;-77
2023/05/30 09:30:35;;;;;;;2.88;2.05;;;;;;;;;;4997549;28;20049;-77
2023/05/30 09:33:01;;;;;;;1.75;1.48;;;;;;;;;;5011911;28;20054;-77
2023/05/30 09:35:27;;;;;;;1.63;1.52;;;;;;;;;;4994909;28;20093;-77
2023/05/30 09:37:53;;;;;;;1.58;1.48;;;;;;;;;;5013069;28;20037;-77
2023/05/30 09:40:19;;;;;;;1.30;1.30;;;;;;;;;;5001623;28;20116;-77
2023/05/30 09:42:46;;;;;;;2.47;1.60;;;;;;;;;;4999627;28;20038;-77
2023/05/30 09:45:16;;;;;;;3.00;1.77;;;;;;;;;;5006404;28;20485;-77
2023/05/30 09:47:44;;;;;;;2.35;1.58;;;;;;;;;;5013162;28;20111;-77
2023/05/30 09:50:14;;;;;;;2.28;1.60;;;;;;;;;;5012579;28;20081;-77
2023/05/30 09:52:41;;;;;;;2.63;1.73;;;;;;;;;;5013474;28;20133;-77
2023/05/30 09:55:12;;;;;;;1.50;1.40;;;;;;;;;;5011166;28;20517;-77
2023/05/30 09:57:40;;;;;;;2.20;1.50;;;;;;;;;;5012101;28;20054;-77
2023/05/30 10:00:11;;;;;;;1.20;1.20;;;;;;;;;;4993968;28;20042;-77
2023/05/30 10:02:39;;;;;;;2.10;1.50;;;;;;;;;;5012735;28;20057;-77
2023/05/30 10:05:05;;;;;;;2.38;1.60;;;;;;;;;;5005823;28;20039;-77
2023/05/30 10:07:32;;;;;;;1.52;1.42;;;;;;;;;;5007697;28;20408;-77
2023/05/30 10:09:59;;;;;;;2.20;1.40;;;;;;;;;;5009091;28;20048;-77
2023/05/30 10:12:25;;;;;;;1.63;1.50;;;;;;;;;;5011682;28;20045;-77
2023/05/30 10:14:51;;;;;;;1.77;1.60;;;;;;;;;;5008268;28;20105;-77
2023/05/30 10:17:18;;;;;;;1.85;1.50;;;;;;;;;;4992266;28;20156;-77
2023/05/30 10:19:47;;;;;;;1.60;1.50;;;;;;;;;;4995786;28;20490;-76
2023/05/30 10:22:13;;;;;;;1.75;1.65;;;;;;;;;;5008337;28;20054;-76
2023/05/30 10:24:41;;;;;;;1.55;1.45;;;;;;;;;;5000141;28;20118;-77
2023/05/30 10:27:09;;;;;;;2.25;1.50;;;;;;;;;;5009102;28;20490;-77
2023/05/30 10:29:43;;;;;;;1.55;1.38;;;;;;;;;;5009072;28;20394;-76
2023/05/30 10:32:10;;;;;;;1.77;1.50;;;;;;;;;;5004365;28;20490;-77
2023/05/30 10:34:42;;;;;;;1.42;1.38;;;;;;;;;;4991823;28;20046;-77
2023/05/30 10:37:09;;;;;;;1.58;1.48;;;;;;;;;;5008752;28;20399;-77
2023/05/30 10:39:52;;;;;;;1.60;1.30;;;;;;;;;;5009286;28;20052;-77
2023/05/30 10:42:18;;;;;;;;;;;;;;;;;;4998129;28;20038;-77
2023/05/30 10:44:54;;;;;;;1.40;1.40;;;;;;;;;;5012015;28;20414;-77
2023/05/30 10:47:26;;;;;;;1.50;1.40;;;;;;;;;;5007292;28;20074;-77
2023/05/30 10:49:55;;;;;;;3.50;1.58;;;;;;;;;;5003566;28;20104;-78
2023/05/30 10:52:30;;;;;;;1.35;1.30;;;;;;;;;;5009134;28;20045;-77
2023/05/30 10:54:56;;;;;;;1.40;1.30;;;;;;;;;;5010487;28;20477;-78
2023/05/30 10:57:28;;;;;;;2.20;1.42;;;;;;;;;;5009326;28;20061;-78
2023/05/30 11:00:00;;;;;;;2.88;1.60;;;;;;;;;;5016759;28;20042;-78
2023/05/30 11:02:35;;;;;;;2.05;1.55;;;;;;;;;;5024282;28;20065;-78
2023/05/30 11:05:06;;;;;;;2.08;1.60;;;;;;;;;;5008508;28;20046;-78
2023/05/30 11:07:34;;;;;;;4.25;1.90;;;;;;;;;;4997036;28;20137;-78
2023/05/30 11:10:02;;;;;;;2.08;1.80;;;;;;;;;;5019096;28;20054;-77
2023/05/30 11:12:28;;;;;;;1.88;1.60;;;;;;;;;;5004948;28;20041;-78
2023/05/30 11:14:58;;;;;;;3.00;1.80;;;;;;;;;;5011937;28;20469;-78
2023/05/30 11:17:31;;;;;;;1.77;1.67;;;;;;;;;;5005121;28;20046;-78
2023/05/30 11:20:07;;;;;;;2.58;1.55;;;;;;;;;;5015207;28;20092;-78
2023/05/30 11:22:33;;;;;;;1.60;1.50;;;;;;;;;;5010634;28;20556;-77
2023/05/30 11:25:19;;;;;;;1.83;1.70;;;;;;;;;;5001890;28;20506;-77
2023/05/30 11:28:03;;;;;;;1.40;1.30;;;;;;;;;;5009101;28;20042;-78
2023/05/30 11:30:30;;;;;;;1.52;1.42;;;;;;;;;;5004440;28;20103;-77
2023/05/30 11:32:59;;;;;;;1.40;1.40;;;;;;;;;;5007425;28;20042;-77
2023/05/30 11:35:27;;;;;;;2.53;1.50;;;;;;;;;;5008294;28;20410;-77
2023/05/30 11:37:56;;;;;;;2.85;1.50;;;;;;;;;;4998725;28;20057;-77
2023/05/30 11:40:23;;;;;;;1.80;1.55;;;;;;;;;;5005426;28;20046;-77
2023/05/30 11:42:58;;;;;;;1.58;1.40;;;;;;;;;;5007213;28;20049;-77
2023/05/30 11:45:29;;;;;;;1.60;1.50;;;;;;;;;;5010171;28;20092;-78
2023/05/30 11:48:03;;;;;;;1.63;1.52;;;;;;;;;;5002730;28;20129;-78
2023/05/30 11:50:29;;;;;;;3.67;1.60;;;;;;;;;;5014022;28;20045;-77
2023/05/30 11:52:57;;;;;;;1.73;1.63;;;;;;;;;;5014700;28;20046;-77
2023/05/30 11:55:23;;;;;;;2.00;1.70;;;;;;;;;;5014695;28;20057;-77
2023/05/30 11:57:49;;;;;;;2.00;1.45;;;;;;;;;;4999197;28;20069;-78
2023/05/30 12:00:17;;;;;;;1.67;1.58;;;;;;;;;;5008491;28;20453;-77
2023/05/30 12:02:43;;;;;;;1.58;1.48;;;;;;;;;;5013896;28;20088;-78
2023/05/30 12:05:09;;;;;;;1.77;1.67;;;;;;;;;;5013069;28;20053;-77
2023/05/30 12:07:35;;;;;;;3.10;1.60;;;;;;;;;;5011866;28;20084;-77
2023/05/30 12:10:01;;;;;;;1.88;1.55;;;;;;;;;;5015033;28;20073;-78
2023/05/30 12:12:28;;;;;;;1.30;1.30;;;;;;;;;;5015406;28;20045;-77
2023/05/30 12:14:57;;;;;;;2.50;1.40;;;;;;;;;;5002564;28;20037;-78
2023/05/30 12:17:24;;;;;;;1.60;1.50;;;;;;;;;;5006291;28;20050;-78
2023/05/30 12:19:57;;;;;;;1.88;1.75;;;;;;;;;;5001952;28;20058;-77
2023/05/30 12:22:24;;;;;;;1.83;1.55;;;;;;;;;;5012976;28;20057;-78
2023/05/30 12:24:51;;;;;;;1.50;1.40;;;;;;;;;;5007067;28;20057;-77
2023/05/30 12:27:22;;;;;;;2.10;1.52;;;;;;;;;;5003199;28;20044;-77
2023/05/30 12:29:48;;;;;;;3.03;1.60;;;;;;;;;;5012998;28;20037;-77
2023/05/30 12:32:14;;;;;;;1.70;1.60;;;;;;;;;;5010306;28;20418;-77
2023/05/30 12:34:45;;;;;;;2.03;1.60;;;;;;;;;;4999126;28;20045;-77
2023/05/30 12:37:11;;;;;;;4.65;1.90;;;;;;;;;;5012376;28;20103;-77
2023/05/30 12:39:47;;;;;;;2.10;1.55;;;;;;;;;;5013780;28;20509;-77
2023/05/30 12:42:13;;;;;;;1.77;1.60;;;;;;;;;;4996262;28;20092;-77
2023/05/30 12:45:08;;;;;;;2.97;1.50;;;;;;;;;;4999393;28;20068;-77
2023/05/30 12:47:35;;;;;;;1.60;1.50;;;;;;;;;;4997616;28;20058;-77
2023/05/30 12:50:01;;;;;;;1.60;1.60;;;;;;;;;;5007388;28;20099;-77
2023/05/30 12:52:28;;;;;;;2.90;1.80;;;;;;;;;;5011584;28;20049;-78
2023/05/30 12:54:54;;;;;;;1.80;1.70;;;;;;;;;;5013028;28;20053;-78
2023/05/30 12:57:25;;;;;;;1.80;1.70;;;;;;;;;;5011994;28;20054;-77
2023/05/30 12:59:51;;;;;;;1.70;1.60;;;;;;;;;;5005807;28;20100;-78
2023/05/30 13:02:20;;;;;;;2.15;1.80;;;;;;;;;;5005103;28;20129;-78
2023/05/30 13:04:46;;;;;;;2.78;1.70;;;;;;;;;;5006511;28;20168;-77
2023/05/30 13:07:12;;;;;;;2.28;1.77;;;;;;;;;;5011474;28;20124;-77
2023/05/30 13:09:39;;;;;;;1.85;1.70;;;;;;;;;;5013964;28;20052;-77
2023/05/30 13:12:08;;;;;;;2.58;2.05;;;;;;;;;;5009147;28;20046;-77
2023/05/30 13:14:34;;;;;;;1.88;1.67;;;;;;;;;;5006119;28;20105;-77
2023/05/30 13:17:00;;;;;;;3.92;2.10;;;;;;;;;;5011999;28;20041;-77
2023/05/30 13:19:26;;;;;;;3.25;1.77;;;;;;;;;;5011847;28;20041;-78
2023/05/30 13:21:52;;;;;;;2.10;1.90;;;;;;;;;;5009718;28;20045;-77
2023/05/30 13:24:18;;;;;;;2.90;1.88;;;;;;;;;;4994717;28;20042;-77
2023/05/30 13:26:44;;;;;;;4.80;1.80;;;;;;;;;;5009231;28;20417;-77
2023/05/30 13:29:10;;;;;;;3.38;2.00;;;;;;;;;;5012040;28;20553;-77
2023/05/30 13:31:36;;;;;;;2.40;1.90;;;;;;;;;;5010182;28;20133;-77
2023/05/30 13:34:03;;;;;;;3.13;1.98;;;;;;;;;;5014245;28;20125;-77
2023/05/30 13:36:29;;;;;;;5.72;1.90;;;;;;;;;;5010658;28;20049;-77
2023/05/30 13:38:56;;;;;;;1.85;1.75;;;;;;;;;;4998639;28;20065;-78
2023/05/30 13:41:22;;;;;;;2.00;1.60;;;;;;;;;;4998422;28;20070;-77
2023/05/30 13:43:48;;;;;;;1.40;1.40;;;;;;;;;;5004909;28;20038;-77
2023/05/30 13:46:14;;;;;;;2.95;1.50;;;;;;;;;;5004719;28;20056;-78
2023/05/30 13:48:40;;;;;;;4.38;1.73;;;;;;;;;;5011874;28;20124;-78
2023/05/30 13:51:06;;;;;;;1.73;1.50;;;;;;;;;;5010047;28;20042;-77
2023/05/30 13:53:32;;;;;;;1.70;1.60;;;;;;;;;;5005208;28;20046;-77
2023/05/30 13:55:59;;;;;;;2.70;1.52;;;;;;;;;;5005957;28;20382;-78
2023/05/30 13:58:25;;;;;;;1.52;1.42;;;;;;;;;;5013011;28;20038;-77
2023/05/30 14:00:51;;;;;;;1.50;1.40;;;;;;;;;;5000205;28;20137;-78
2023/05/30 14:03:17;;;;;;;1.70;1.60;;;;;;;;;;5009753;28;20549;-77
2023/05/30 14:05:43;;;;;;;1.40;1.30;;;;;;;;;;5008702;28;20132;-77
2023/05/30 14:08:09;;;;;;;2.00;1.80;;;;;;;;;;5011217;28;20144;-77
2023/05/30 14:10:35;;;;;;;2.28;1.63;;;;;;;;;;5002371;28;20384;-77
2023/05/30 14:13:01;;;;;;;1.90;1.75;;;;;;;;;;5009323;28;20033;-78
2023/05/30 14:15:32;;;;;;;3.47;1.80;;;;;;;;;;5010854;28;20505;-78
2023/05/30 14:17:58;;;;;;;3.78;2.00;;;;;;;;;;5007648;28;20494;-77
2023/05/30 14:20:24;;;;;;;3.70;1.95;;;;;;;;;;5005966;28;20049;-77
2023/05/30 14:22:51;;;;;;;4.25;1.92;;;;;;;;;;5010593;28;20053;-78
2023/05/30 14:25:17;;;;;;;3.72;2.30;;;;;;;;;;5003635;28;20065;-77
2023/05/30 14:27:43;;;;;;;3.53;2.00;;;;;;;;;;5006046;28;20045;-77
2023/05/30 14:30:12;;;;;;;3.60;2.40;;;;;;;;;;5013367;28;20042;-77
2023/05/30 14:32:39;;;;;;;4.60;2.28;;;;;;;;;;5007718;28;20064;-77
2023/05/30 14:35:06;;;;;;;2.42;1.90;;;;;;;;;;5007910;28;20486;-78
2023/05/30 14:37:32;;;;;;;1.83;1.73;;;;;;;;;;5008824;28;20151;-77
2023/05/30 14:39:59;;;;;;;1.98;1.80;;;;;;;;;;5010746;28;20042;-77